Time;durP1;ratioP1;P1;durP2;ratioP2;P2;SDS_P1;SDS_P2;PMS_P1;PMS_P2;Temp;Humidity;BMP_temperature;BMP_pressure;BME280_temperature;BME280_humidity;BME280_pressure;Samples;Min_cycle;Max_cycle;Signal;HPM_P1;HPM_P2
2021/05/24 00:00:08;;;;;;;0.5;0.3;;;;;;;8.36;81.12402;938.9805;;;;
2021/05/24 00:02:33;;;;;;;0.6;0.4;;;;;;;8.38;81.07031;938.8681;;;;
2021/05/24 00:04:59;;;;;;;0.6;0.3;;;;;;;8.34;81.25586;938.8627;;;;
2021/05/24 00:07:24;;;;;;;0.4;0.4;;;;;;;8.29;81.20117;938.9272;;;;
2021/05/24 00:09:49;;;;;;;0.3;0.3;;;;;;;8.21;81.99023;938.9222;;;;
2021/05/24 00:12:14;;;;;;;0.4;0.4;;;;;;;8.19;81.7832;938.9227;;;;
2021/05/24 00:14:40;;;;;;;0.5;0.4;;;;;;;8.21;81.62891;938.8822;;;;
2021/05/24 00:17:04;;;;;;;0.4;0.4;;;;;;;8.22;81.46973;938.9553;;;;
2021/05/24 00:19:29;;;;;;;0.8;0.5;;;;;;;8.01;82.28223;938.8949;;;;
2021/05/24 00:21:55;;;;;;;1.2;0.3;;;;;;;8.02;82.25098;938.7791;;;;
2021/05/24 00:24:21;;;;;;;0.3;0.3;;;;;;;7.99;82.16504;938.744;;;;
2021/05/24 00:26:46;;;;;;;0.6;0.4;;;;;;;7.81;82.90234;938.7614;;;;
2021/05/24 00:29:15;;;;;;;1.6;0.4;;;;;;;7.59;83.85645;938.5933;;;;
2021/05/24 00:31:36;;;;;;;0.2;0.2;;;;;;;7.57;84.42188;938.5661;;;;
2021/05/24 00:34:02;;;;;;;0.3;0.3;;;;;;;7.58;84.25293;938.5235;;;;
2021/05/24 00:36:27;;;;;;;0.2;0.2;;;;;;;7.68;83.77344;938.4347;;;;
2021/05/24 00:38:54;;;;;;;2;0.4;;;;;;;7.71;83.5293;938.402;;;;
2021/05/24 00:41:30;;;;;;;3.1;0.3;;;;;;;7.74;83.23926;938.3645;;;;
2021/05/24 00:43:55;;;;;;;1;0.6;;;;;;;7.74;83.14941;938.3764;;;;
2021/05/24 00:46:20;;;;;;;0.2;0.2;;;;;;;7.69;83.35547;938.2883;;;;
2021/05/24 00:48:45;;;;;;;0.2;0.2;;;;;;;7.66;83.5752;938.0863;;;;
2021/05/24 00:51:10;;;;;;;0.2;0.2;;;;;;;7.71;83.34766;938.1166;;;;
2021/05/24 00:53:37;;;;;;;14;0.5;;;;;;;7.77;82.90625;938.1067;;;;
2021/05/24 00:56:02;;;;;;;1.5;0.5;;;;;;;7.55;83.53223;938.1202;;;;
2021/05/24 00:58:28;;;;;;;0.4;0.3;;;;;;;7.5;83.84082;938.1398;;;;
2021/05/24 01:00:53;;;;;;;0.6;0.5;;;;;;;7.28;84.27246;937.9924;;;;
2021/05/24 01:03:19;;;;;;;0.3;0.3;;;;;;;7.28;84.4873;937.9061;;;;
2021/05/24 01:05:44;;;;;;;0.4;0.4;;;;;;;7.29;84.54785;937.8976;;;;
2021/05/24 01:08:10;;;;;;;0.2;0.2;;;;;;;7.35;84.34277;937.823;;;;
2021/05/24 01:10:35;;;;;;;0.4;0.2;;;;;;;;;;;;;
2021/05/24 01:13:01;;;;;;;0.5;0.3;;;;;;;;;;;;;
2021/05/24 01:15:26;;;;;;;0.3;0.3;;;;;;;;;;;;;
2021/05/24 01:17:54;;;;;;;0.3;0.2;;;;;;;;;;;;;
2021/05/24 01:20:16;;;;;;;0.3;0.3;;;;;;;;;;;;;
2021/05/24 01:22:49;;;;;;;0.5;0.4;;;;;;;;;;;;;
2021/05/24 01:25:07;;;;;;;0.1;0.1;;;;;;;;;;;;;
2021/05/24 01:27:32;;;;;;;0.5;0.4;;;;;;;;;;;;;
2021/05/24 01:29:57;;;;;;;0.1;0.1;;;;;;;;;;;;;
2021/05/24 01:32:22;;;;;;;1.5;0.5;;;;;;;;;;;;;
2021/05/24 01:34:48;;;;;;;0.1;0.1;;;;;;;;;;;;;
2021/05/24 01:37:13;;;;;;;0.2;0.2;;;;;;;;;;;;;
2021/05/24 01:39:38;;;;;;;0.4;0.3;;;;;;;;;;;;;
2021/05/24 01:42:03;;;;;;;0.1;0.1;;;;;;;;;;;;;
2021/05/24 01:44:28;;;;;;;0.3;0.3;;;;;;;;;;;;;
2021/05/24 01:46:53;;;;;;;0.6;0.5;;;;;;;;;;;;;
2021/05/24 01:49:19;;;;;;;0.5;0.4;;;;;;;;;;;;;
2021/05/24 01:51:44;;;;;;;0.2;0.2;;;;;;;;;;;;;
2021/05/24 01:54:09;;;;;;;0.2;0.2;;;;;;;;;;;;;
2021/05/24 01:56:34;;;;;;;0.3;0.3;;;;;;;;;;;;;
2021/05/24 01:58:59;;;;;;;0.1;0.1;;;;;;;;;;;;;
2021/05/24 02:01:25;;;;;;;0.2;0.2;;;;;;;;;;;;;
2021/05/24 02:03:50;;;;;;;0.3;0.2;;;;;;;;;;;;;
2021/05/24 02:06:15;;;;;;;0.4;0.4;;;;;;;;;;;;;
2021/05/24 02:08:40;;;;;;;0.3;0.3;;;;;;;;;;;;;
2021/05/24 02:11:06;;;;;;;0.4;0.4;;;;;;;;;;;;;
2021/05/24 02:13:31;;;;;;;0.6;0.4;;;;;;;;;;;;;
2021/05/24 02:15:57;;;;;;;0.3;0.3;;;;;;;;;;;;;
2021/05/24 02:18:22;;;;;;;0.1;0.1;;;;;;;;;;;;;
2021/05/24 02:20:47;;;;;;;0.5;0.3;;;;;;;;;;;;;
2021/05/24 02:23:12;;;;;;;0.1;0.1;;;;;;;;;;;;;
2021/05/24 02:25:37;;;;;;;0.5;0.3;;;;;;;;;;;;;
2021/05/24 02:28:02;;;;;;;0.2;0.2;;;;;;;;;;;;;
2021/05/24 02:30:33;;;;;;;0.3;0.3;;;;;;;;;;;;;
2021/05/24 02:32:58;;;;;;;1.5;0.4;;;;;;;;;;;;;
2021/05/24 02:35:23;;;;;;;0.5;0.3;;;;;;;;;;;;;
2021/05/24 02:37:49;;;;;;;0.2;0.2;;;;;;;;;;;;;
2021/05/24 02:40:14;;;;;;;0.3;0.3;;;;;;;;;;;;;
2021/05/24 02:42:40;;;;;;;2.7;0.5;;;;;;;;;;;;;
2021/05/24 02:45:06;;;;;;;0.5;0.4;;;;;;;;;;;;;
2021/05/24 02:47:31;;;;;;;0.2;0.2;;;;;;;;;;;;;
2021/05/24 02:49:56;;;;;;;1.2;0.7;;;;;;;;;;;;;
2021/05/24 02:52:22;;;;;;;0.3;0.3;;;;;;;;;;;;;
2021/05/24 02:54:47;;;;;;;0.2;0.2;;;;;;;;;;;;;
2021/05/24 02:57:13;;;;;;;0.4;0.4;;;;;;;;;;;;;
2021/05/24 02:59:38;;;;;;;0.3;0.3;;;;;;;;;;;;;
2021/05/24 03:02:06;;;;;;;0.1;0.1;;;;;;;;;;;;;
2021/05/24 03:04:30;;;;;;;0.2;0.2;;;;;;;;;;;;;
2021/05/24 03:06:55;;;;;;;0.4;0.3;;;;;;;;;;;;;
2021/05/24 03:09:20;;;;;;;0.1;0.1;;;;;;;;;;;;;
2021/05/24 03:11:46;;;;;;;0.3;0.2;;;;;;;;;;;;;
2021/05/24 03:14:12;;;;;;;0.4;0.3;;;;;;;;;;;;;
2021/05/24 03:16:37;;;;;;;0.2;0.2;;;;;;;;;;;;;
2021/05/24 03:19:02;;;;;;;0.7;0.4;;;;;;;;;;;;;
2021/05/24 03:21:27;;;;;;;0.2;0.2;;;;;;;;;;;;;
2021/05/24 03:23:52;;;;;;;0.3;0.3;;;;;;;;;;;;;
2021/05/24 03:26:18;;;;;;;0.5;0.4;;;;;;;;;;;;;
2021/05/24 03:28:45;;;;;;;0.2;0.2;;;;;;;;;;;;;
2021/05/24 03:31:08;;;;;;;0.2;0.2;;;;;;;;;;;;;
2021/05/24 03:33:33;;;;;;;0.1;0.1;;;;;;;;;;;;;
2021/05/24 03:35:58;;;;;;;0.3;0.2;;;;;;;;;;;;;
2021/05/24 03:38:23;;;;;;;0.1;0.1;;;;;;;;;;;;;
2021/05/24 03:40:48;;;;;;;0.2;0.2;;;;;;;;;;;;;
2021/05/24 03:43:14;;;;;;;0.4;0.3;;;;;;;;;;;;;
2021/05/24 03:45:40;;;;;;;0.2;0.2;;;;;;;;;;;;;
2021/05/24 03:48:06;;;;;;;0.3;0.3;;;;;;;;;;;;;
2021/05/24 03:50:31;;;;;;;0.2;0.2;;;;;;;;;;;;;
2021/05/24 03:52:57;;;;;;;0.2;0.1;;;;;;;;;;;;;
2021/05/24 03:55:22;;;;;;;0.7;0.4;;;;;;;;;;;;;
2021/05/24 03:57:49;;;;;;;1.5;0.4;;;;;;;;;;;;;
2021/05/24 04:02:30;;;;;;;0.8;0.5;;;;;;;7.47;80.33203;936.3713;;;;
2021/05/24 04:04:56;;;;;;;1.3;0.4;;;;;;;7.57;79.70605;936.3008;;;;
2021/05/24 04:07:23;;;;;;;0.3;0.3;;;;;;;7.57;78.97852;936.2651;;;;
2021/05/24 04:09:46;;;;;;;0.4;0.4;;;;;;;7.66;78.6416;936.1552;;;;
2021/05/24 04:12:10;;;;;;;0.3;0.3;;;;;;;7.63;79.27246;936.2253;;;;
2021/05/24 04:14:36;;;;;;;0.4;0.3;;;;;;;7.82;78.60352;935.9908;;;;
2021/05/24 04:17:01;;;;;;;0.2;0.2;;;;;;;7.87;78.375;935.8752;;;;
2021/05/24 04:19:26;;;;;;;1.9;0.3;;;;;;;7.99;78.78223;935.9919;;;;
2021/05/24 04:21:51;;;;;;;0.9;0.7;;;;;;;8.14;77.61816;935.9294;;;;
2021/05/24 04:24:16;;;;;;;0.5;0.5;;;;;;;8.19;77.39941;935.8795;;;;
2021/05/24 04:26:43;;;;;;;0.3;0.3;;;;;;;8.27;77.4707;935.9133;;;;
2021/05/24 04:29:08;;;;;;;0.3;0.3;;;;;;;8.38;77.06055;935.9771;;;;
2021/05/24 04:31:33;;;;;;;0.4;0.3;;;;;;;8.24;77.05762;935.8899;;;;
2021/05/24 04:33:58;;;;;;;0.3;0.2;;;;;;;8.17;77.40723;936.0164;;;;
2021/05/24 04:36:25;;;;;;;0.3;0.2;;;;;;;8.3;76.58984;935.9692;;;;
2021/05/24 04:38:51;;;;;;;0.1;0.1;;;;;;;8.26;76.41309;935.9631;;;;
2021/05/24 04:41:16;;;;;;;0.3;0.3;;;;;;;8.3;77.28418;935.9861;;;;
2021/05/24 04:43:42;;;;;;;1.3;0.8;;;;;;;8.45;76.78809;936.0792;;;;
2021/05/24 04:46:07;;;;;;;1.4;0.5;;;;;;;8.43;76.1123;936.0883;;;;
2021/05/24 04:48:35;;;;;;;0.3;0.3;;;;;;;8.45;74.56055;936.1053;;;;
2021/05/24 04:50:59;;;;;;;0.4;0.2;;;;;;;8.53;74.84766;936.1484;;;;
2021/05/24 04:53:25;;;;;;;0.4;0.3;;;;;;;8.72;74.66406;936.0709;;;;
2021/05/24 04:55:50;;;;;;;1.8;0.5;;;;;;;8.83;74.56934;936.0385;;;;
2021/05/24 04:58:15;;;;;;;1.1;0.5;;;;;;;8.93;74.66797;936.2748;;;;
2021/05/24 05:00:41;;;;;;;0.2;0.2;;;;;;;8.89;73.4541;936.3981;;;;
2021/05/24 05:03:06;;;;;;;0.4;0.4;;;;;;;9.04;73.62695;936.4011;;;;
2021/05/24 05:05:35;;;;;;;0.9;0.5;;;;;;;9.07;73.6123;936.4444;;;;
2021/05/24 05:08:00;;;;;;;0.8;0.7;;;;;;;9.16;74.11523;936.5145;;;;
2021/05/24 05:10:25;;;;;;;0.3;0.3;;;;;;;9.23;73.56934;936.4639;;;;
2021/05/24 05:12:50;;;;;;;0.3;0.3;;;;;;;9.32;73.82422;936.5016;;;;
2021/05/24 05:15:15;;;;;;;0;0;;;;;;;9.25;72.45605;936.426;;;;
2021/05/24 05:21:15;;;;;;;0.1;0.1;;;;;;;9.48;72.97363;936.2682;;;;
2021/05/24 05:23:40;;;;;;;0.4;0.4;;;;;;;9.65;72.44434;936.2377;;;;
2021/05/24 05:26:05;;;;;;;2;0.4;;;;;;;9.79;72.75391;936.118;;;;
2021/05/24 05:28:30;;;;;;;0.2;0.2;;;;;;;9.86;72.05762;936.1094;;;;
2021/05/24 05:30:55;;;;;;;0.2;0.2;;;;;;;9.93;72.28613;936.0153;;;;
2021/05/24 05:33:20;;;;;;;0.2;0.2;;;;;;;9.9;71.3584;935.9554;;;;
2021/05/24 05:35:48;;;;;;;0.4;0.4;;;;;;;9.94;71.15918;935.9224;;;;
2021/05/24 05:38:12;;;;;;;0.4;0.2;;;;;;;9.98;71.5752;935.882;;;;
2021/05/24 05:40:38;;;;;;;0.3;0.2;;;;;;;10.06;71.56738;935.9617;;;;
2021/05/24 05:43:03;;;;;;;1.7;1.1;;;;;;;10.14;69.70996;935.8947;;;;
2021/05/24 05:45:28;;;;;;;0.5;0.5;;;;;;;10.38;69.35938;935.7751;;;;
2021/05/24 05:47:54;;;;;;;0.5;0.3;;;;;;;10.55;68.81641;935.7572;;;;
2021/05/24 05:50:19;;;;;;;1.1;0.5;;;;;;;10.63;67.82422;935.7595;;;;
2021/05/24 05:52:44;;;;;;;0.5;0.3;;;;;;;10.71;68.13281;935.7527;;;;
2021/05/24 05:55:31;;;;;;;0.6;0.3;;;;;;;10.74;67.75;935.7139;;;;
2021/05/24 05:57:56;;;;;;;0.3;0.3;;;;;;;10.87;68.61523;935.7553;;;;
2021/05/24 06:00:21;;;;;;;0.6;0.5;;;;;;;11.02;68.59375;935.7434;;;;
2021/05/24 06:02:48;;;;;;;1;0.4;;;;;;;11.08;68.38672;935.6345;;;;
2021/05/24 06:05:13;;;;;;;0.4;0.4;;;;;;;11.1;68.75391;935.6401;;;;
2021/05/24 06:07:39;;;;;;;0.5;0.4;;;;;;;11.27;68.78223;935.6425;;;;
2021/05/24 06:10:04;;;;;;;0.6;0.3;;;;;;;11.02;67.70215;935.7291;;;;
2021/05/24 06:12:30;;;;;;;0.5;0.5;;;;;;;10.84;67.82227;935.5617;;;;
2021/05/24 06:14:57;;;;;;;0.4;0.4;;;;;;;10.81;67.40723;935.5931;;;;
2021/05/24 06:17:21;;;;;;;0.5;0.3;;;;;;;11.11;65.45313;935.5851;;;;
2021/05/24 06:19:47;;;;;;;0.6;0.3;;;;;;;11.4;66.13672;935.5542;;;;
2021/05/24 06:22:13;;;;;;;0.7;0.3;;;;;;;11.56;65.2793;935.4495;;;;
2021/05/24 06:24:38;;;;;;;0.2;0.2;;;;;;;11.65;66.00391;935.3702;;;;
2021/05/24 06:27:04;;;;;;;0.3;0.3;;;;;;;11.77;66.20508;935.3805;;;;
2021/05/24 06:29:31;;;;;;;0.8;0.2;;;;;;;11.83;63.21387;935.3962;;;;
2021/05/24 06:32:34;;;;;;;0.3;0.3;;;;;;;12.05;62.95801;935.4331;;;;
2021/05/24 06:34:59;;;;;;;0.2;0.2;;;;;;;12.21;61.33105;935.4305;;;;
2021/05/24 06:37:24;;;;;;;0.2;0.2;;;;;;;12.28;59.53125;935.5033;;;;
2021/05/24 06:39:50;;;;;;;0.5;0.4;;;;;;;12.48;61.30078;935.603;;;;
2021/05/24 06:42:15;;;;;;;0.4;0.4;;;;;;;12.64;59.87891;935.5989;;;;
2021/05/24 06:44:41;;;;;;;0.4;0.4;;;;;;;12.89;61.31445;935.584;;;;
2021/05/24 06:47:06;;;;;;;0.1;0.1;;;;;;;13.03;60.42676;935.6037;;;;
2021/05/24 06:52:58;;;;;;;0.1;0.1;;;;;;;13.44;61.23047;935.6129;;;;
2021/05/24 06:55:23;;;;;;;0.3;0.3;;;;;;;13.45;60.68945;935.5464;;;;
2021/05/24 06:57:48;;;;;;;0.2;0.2;;;;;;;13.46;61.86523;935.528;;;;
2021/05/24 07:00:13;;;;;;;0.6;0.2;;;;;;;13.48;61.31738;935.4631;;;;
2021/05/24 07:02:41;;;;;;;0;0;;;;;;;13.53;59.75977;935.418;;;;
2021/05/24 07:05:05;;;;;;;0.1;0.1;;;;;;;13.62;59.12793;935.3544;;;;
2021/05/24 07:07:30;;;;;;;0.3;0.3;;;;;;;13.7;57.29883;935.2737;;;;
2021/05/24 07:09:55;;;;;;;0.3;0.3;;;;;;;13.69;57.76953;935.1859;;;;
2021/05/24 07:12:21;;;;;;;0.1;0.1;;;;;;;13.94;57.23828;935.2537;;;;
2021/05/24 07:14:51;;;;;;;0.4;0.3;;;;;;;14.39;56.75586;935.2383;;;;
2021/05/24 07:17:11;;;;;;;1.2;0.5;;;;;;;14.98;55.31055;935.2921;;;;
2021/05/24 07:19:36;;;;;;;0.6;0.5;;;;;;;15.76;54.44824;935.2997;;;;
2021/05/24 07:22:02;;;;;;;1.3;0.5;;;;;;;16.38;53.09277;935.2734;;;;
2021/05/24 07:24:28;;;;;;;0.5;0.3;;;;;;;16.57;53.47363;935.2133;;;;
2021/05/24 07:26:54;;;;;;;0.1;0.1;;;;;;;16.87;52.3291;935.2455;;;;
2021/05/24 07:29:18;;;;;;;0.3;0.3;;;;;;;17.29;51.79883;935.3147;;;;
2021/05/24 07:31:44;;;;;;;0.1;0.1;;;;;;;17.43;49.83203;935.2467;;;;
2021/05/24 07:34:10;;;;;;;0.1;0.1;;;;;;;17.48;50.46484;935.2714;;;;
2021/05/24 07:36:35;;;;;;;0.2;0.2;;;;;;;17.52;48.73926;935.2618;;;;
2021/05/24 07:39:01;;;;;;;0.4;0.2;;;;;;;17.48;47.41309;935.2714;;;;
2021/05/24 07:41:26;;;;;;;0.5;0.2;;;;;;;17.1;48.79883;935.2926;;;;
2021/05/24 07:43:54;;;;;;;0.4;0.3;;;;;;;17.3;47.91504;935.2397;;;;
2021/05/24 07:46:19;;;;;;;0.1;0.1;;;;;;;17.23;47.22363;935.2459;;;;
2021/05/24 07:48:45;;;;;;;0.1;0.1;;;;;;;17.04;49.37109;935.2198;;;;
2021/05/24 07:51:10;;;;;;;2.1;0.4;;;;;;;16.95;50.11328;935.1482;;;;
2021/05/24 07:53:36;;;;;;;1.4;0.5;;;;;;;17.09;50.06055;935.1503;;;;
2021/05/24 07:56:01;;;;;;;0.7;0.3;;;;;;;17.03;50.04102;935.1774;;;;
2021/05/24 07:58:28;;;;;;;0.5;0.4;;;;;;;17.02;53.93457;935.1534;;;;
2021/05/24 08:00:52;;;;;;;0.2;0.2;;;;;;;16.69;50.79004;935.161;;;;
2021/05/24 08:03:19;;;;;;;0;0;;;;;;;16.65;46.4082;935.2626;;;;
2021/05/24 08:05:44;;;;;;;0.2;0.1;;;;;;;16.7;48.39453;935.2564;;;;
2021/05/24 08:08:11;;;;;;;0.4;0.2;;;;;;;16.75;48.51465;935.1806;;;;
2021/05/24 08:10:36;;;;;;;0.2;0.2;;;;;;;16.74;47.32227;935.2589;;;;
2021/05/24 08:13:03;;;;;;;0.5;0.3;;;;;;;16.72;47.04102;935.207;;;;
2021/05/24 08:15:31;;;;;;;0.2;0.2;;;;;;;16.53;44.41602;935.1738;;;;
2021/05/24 08:17:54;;;;;;;0.2;0.1;;;;;;;16.54;44.41699;935.2195;;;;
2021/05/24 08:20:19;;;;;;;0.1;0.1;;;;;;;16.58;44.61914;935.3223;;;;
2021/05/24 08:22:45;;;;;;;0.1;0.1;;;;;;;16.61;45.25781;935.3484;;;;
2021/05/24 08:25:10;;;;;;;16.5;0.6;;;;;;;16.57;45.19531;935.3853;;;;
2021/05/24 08:27:36;;;;;;;0.2;0.2;;;;;;;16.46;45.11621;935.3889;;;;
2021/05/24 08:30:00;;;;;;;0.3;0.2;;;;;;;16.32;45.36719;935.4199;;;;
2021/05/24 08:32:28;;;;;;;0.1;0.1;;;;;;;16.25;44.98926;935.3536;;;;
2021/05/24 08:34:52;;;;;;;1.9;0.4;;;;;;;16.34;47.24316;935.3979;;;;
2021/05/24 08:37:17;;;;;;;0.1;0.1;;;;;;;16.3;48.30273;935.3705;;;;
2021/05/24 08:39:45;;;;;;;0;0;;;;;;;16.28;49.04297;935.2703;;;;
2021/05/24 08:42:11;;;;;;;1.8;0.3;;;;;;;16.31;48.47852;935.3542;;;;
2021/05/24 08:44:37;;;;;;;0.6;0.4;;;;;;;16.31;48.1084;935.3816;;;;
2021/05/24 08:47:01;;;;;;;0.2;0.2;;;;;;;16.38;46.94727;935.4004;;;;
2021/05/24 08:49:26;;;;;;;0.2;0.2;;;;;;;16.42;46.92871;935.3976;;;;
2021/05/24 08:51:51;;;;;;;0.3;0.2;;;;;;;16.49;46.43848;935.3345;;;;
2021/05/24 08:54:16;;;;;;;0.2;0.1;;;;;;;16.47;46.15723;935.429;;;;
2021/05/24 08:56:42;;;;;;;0.6;0.2;;;;;;;16.64;46.15234;935.4913;;;;
2021/05/24 08:59:09;;;;;;;0.2;0.2;;;;;;;16.38;49.27246;935.5042;;;;
2021/05/24 09:01:34;;;;;;;3.4;0.4;;;;;;;16.39;49.69141;935.4684;;;;
2021/05/24 09:04:00;;;;;;;0.1;0.1;;;;;;;16.56;50.23047;935.4747;;;;
2021/05/24 09:06:25;;;;;;;0.3;0.2;;;;;;;16.64;49.91504;935.5276;;;;
2021/05/24 09:08:50;;;;;;;1.7;0.8;;;;;;;16.76;49.60449;935.5247;;;;
2021/05/24 09:11:16;;;;;;;0.1;0.1;;;;;;;16.77;45.53027;935.6033;;;;
2021/05/24 09:13:41;;;;;;;0.7;0.3;;;;;;;16.86;46.39551;935.7137;;;;
2021/05/24 09:16:09;;;;;;;0.3;0.1;;;;;;;16.91;45.96094;935.7143;;;;
2021/05/24 09:18:34;;;;;;;0.2;0.2;;;;;;;17.02;44.54785;935.759;;;;
2021/05/24 09:20:59;;;;;;;0.2;0.2;;;;;;;16.96;44.78418;935.7713;;;;
2021/05/24 09:23:25;;;;;;;0.1;0.1;;;;;;;17.09;45.99121;935.6943;;;;
2021/05/24 09:25:53;;;;;;;0.1;0.1;;;;;;;17.09;45.76074;935.625;;;;
2021/05/24 09:28:18;;;;;;;0.4;0.4;;;;;;;17.2;45.98047;935.6261;;;;
2021/05/24 09:30:44;;;;;;;0.1;0.1;;;;;;;17.25;45.64844;935.6255;;;;
2021/05/24 09:33:12;;;;;;;0.5;0.3;;;;;;;17.37;47.25;935.6713;;;;
2021/05/24 09:35:37;;;;;;;0.4;0.1;;;;;;;17.45;46.05273;935.7197;;;;
2021/05/24 09:38:04;;;;;;;6.1;3.5;;;;;;;17.53;46.61719;935.7197;;;;
2021/05/24 09:40:29;;;;;;;3.7;2;;;;;;;17.53;48.47363;935.665;;;;
2021/05/24 09:42:55;;;;;;;0.8;0.6;;;;;;;17.31;48.14746;935.5308;;;;
2021/05/24 09:45:21;;;;;;;2.8;1.9;;;;;;;17.12;50.17871;935.5602;;;;
2021/05/24 09:47:49;;;;;;;1.9;0.8;;;;;;;17.23;48.2793;935.5606;;;;
2021/05/24 09:50:13;;;;;;;1.7;0.9;;;;;;;17.36;51.71484;935.5314;;;;
2021/05/24 09:52:39;;;;;;;0.1;0.1;;;;;;;17.45;50.0791;935.483;;;;
2021/05/24 09:55:04;;;;;;;0.1;0.1;;;;;;;17.65;50.42578;935.5095;;;;
2021/05/24 09:57:30;;;;;;;0;0;;;;;;;17.19;49.52637;935.5578;;;;
2021/05/24 09:59:55;;;;;;;0.6;0.2;;;;;;;16.89;51.17285;935.4847;;;;
2021/05/24 10:02:20;;;;;;;0.1;0.1;;;;;;;16.7;50.38574;935.5186;;;;
2021/05/24 10:04:46;;;;;;;0.1;0.1;;;;;;;16.78;51.7041;935.4833;;;;
2021/05/24 10:07:11;;;;;;;0.3;0.3;;;;;;;16.75;51.13281;935.3794;;;;
2021/05/24 10:09:37;;;;;;;1.4;0.6;;;;;;;16.81;51.71875;935.28;;;;
2021/05/24 10:12:03;;;;;;;1;0.1;;;;;;;16.82;52.26563;935.2311;;;;
2021/05/24 10:14:29;;;;;;;0.2;0.1;;;;;;;16.81;50.9209;935.1361;;;;
2021/05/24 10:16:56;;;;;;;0.3;0.2;;;;;;;16.76;51.63184;935.1564;;;;
2021/05/24 10:19:23;;;;;;;0.1;0.1;;;;;;;16.79;50.84961;935.1397;;;;
2021/05/24 10:21:48;;;;;;;0.1;0.1;;;;;;;16.79;51.72754;935.0586;;;;
2021/05/24 10:24:13;;;;;;;0;0;;;;;;;16.96;51.79492;935.0754;;;;
2021/05/24 10:26:38;;;;;;;0.3;0.3;;;;;;;17.03;51.39648;934.9794;;;;
2021/05/24 10:29:13;;;;;;;0.2;0.1;;;;;;;17.25;51.72461;935.0146;;;;
2021/05/24 10:31:38;;;;;;;0.6;0.1;;;;;;;17.15;52.3623;934.878;;;;
2021/05/24 10:34:03;;;;;;;0.1;0.1;;;;;;;17.09;50.48828;934.9372;;;;
2021/05/24 10:36:30;;;;;;;1.7;0.1;;;;;;;17.21;49.8418;934.8139;;;;
2021/05/24 10:38:53;;;;;;;0.1;0.1;;;;;;;17.13;49.28809;934.7198;;;;
2021/05/24 10:41:20;;;;;;;0.1;0.1;;;;;;;17.04;49.29004;934.5425;;;;
2021/05/24 10:43:46;;;;;;;0.2;0.1;;;;;;;16.97;50.85742;934.5139;;;;
2021/05/24 10:46:11;;;;;;;0;0;;;;;;;17.13;49.99512;934.4271;;;;
2021/05/24 10:48:36;;;;;;;0.1;0.1;;;;;;;17.25;50.1709;934.3603;;;;
2021/05/24 10:51:01;;;;;;;0.1;0.1;;;;;;;17.38;51.00879;934.3606;;;;
2021/05/24 10:53:26;;;;;;;0.2;0.1;;;;;;;17.54;49.68164;934.2509;;;;
2021/05/24 10:55:53;;;;;;;0;0;;;;;;;17.7;50.33789;934.1639;;;;
2021/05/24 10:58:16;;;;;;;0.8;0.2;;;;;;;17.75;49.8457;933.9709;;;;
2021/05/24 11:01:52;;;;;;;0.2;0.1;;;;;;;17.62;48.5293;934.0011;;;;
2021/05/24 11:04:17;;;;;;;0.6;0.2;;;;;;;17.46;47.53809;934.0316;;;;
2021/05/24 11:06:43;;;;;;;0.1;0.1;;;;;;;17.33;47.82617;933.9094;;;;
2021/05/24 11:09:08;;;;;;;0.1;0.1;;;;;;;17.31;49.94531;933.9388;;;;
2021/05/24 11:11:37;;;;;;;0.2;0.2;;;;;;;17.28;48.28418;933.8125;;;;
2021/05/24 11:13:59;;;;;;;0.1;0.1;;;;;;;17.23;49.21875;933.8384;;;;
2021/05/24 11:16:24;;;;;;;0.1;0.1;;;;;;;17.15;50.14844;933.8088;;;;
2021/05/24 11:18:51;;;;;;;1;0.5;;;;;;;17.16;50.39258;933.7729;;;;
2021/05/24 11:21:15;;;;;;;0.1;0.1;;;;;;;17.13;50.99219;933.7914;;;;
2021/05/24 11:23:46;;;;;;;0.7;0.1;;;;;;;17.16;51.0752;933.7957;;;;
2021/05/24 11:26:06;;;;;;;0.2;0.1;;;;;;;17.18;51.49609;933.771;;;;
2021/05/24 11:28:31;;;;;;;0.4;0.3;;;;;;;17.24;50.28613;933.8375;;;;
2021/05/24 11:30:58;;;;;;;0.5;0.2;;;;;;;17.16;49.54492;933.7369;;;;
2021/05/24 11:33:24;;;;;;;0.1;0;;;;;;;17.24;49.60156;933.7305;;;;
2021/05/24 11:35:49;;;;;;;0.1;0.1;;;;;;;17.3;50.31543;933.6301;;;;
2021/05/24 11:38:14;;;;;;;0;0;;;;;;;17.33;48.2666;933.5287;;;;
2021/05/24 11:40:39;;;;;;;0.4;0.3;;;;;;;17.32;48.53125;933.4904;;;;
2021/05/24 11:43:05;;;;;;;0.3;0.3;;;;;;;17.29;49.42188;933.4242;;;;
2021/05/24 11:45:30;;;;;;;0.6;0.2;;;;;;;17.29;49.5498;933.351;;;;
2021/05/24 11:47:55;;;;;;;0.1;0.1;;;;;;;17.35;48.25684;933.2965;;;;
2021/05/24 11:50:20;;;;;;;0.3;0.2;;;;;;;17.44;50.69141;933.2977;;;;
2021/05/24 11:52:45;;;;;;;1.2;0.4;;;;;;;17.63;48.72949;933.195;;;;
2021/05/24 11:55:10;;;;;;;0.3;0.1;;;;;;;17.75;50.23926;933.1528;;;;
2021/05/24 11:57:39;;;;;;;0.2;0.1;;;;;;;17.93;48.56543;933.0861;;;;
2021/05/24 12:00:01;;;;;;;2.3;0.2;;;;;;;18.1;48.99023;933.052;;;;
2021/05/24 12:02:28;;;;;;;0.1;0;;;;;;;18.22;47.23828;932.9384;;;;
2021/05/24 12:04:52;;;;;;;0.1;0.1;;;;;;;18.23;48.59766;932.8312;;;;
2021/05/24 12:07:18;;;;;;;0.7;0.4;;;;;;;18.38;49.05664;932.8089;;;;
2021/05/24 12:09:42;;;;;;;1.5;0.4;;;;;;;18.55;47.35449;932.7382;;;;
2021/05/24 12:12:07;;;;;;;0.5;0.4;;;;;;;18.76;47.91211;932.717;;;;
2021/05/24 12:14:35;;;;;;;0.2;0.2;;;;;;;18.85;48.1543;932.6006;;;;
2021/05/24 12:16:59;;;;;;;0.2;0.1;;;;;;;18.78;45.90039;932.4922;;;;
2021/05/24 12:19:24;;;;;;;0.2;0.1;;;;;;;18.82;46.13867;932.483;;;;
2021/05/24 12:21:50;;;;;;;0.2;0.1;;;;;;;18.75;45.99121;932.3761;;;;
2021/05/24 12:24:15;;;;;;;0.4;0.2;;;;;;;18.54;45.57422;932.302;;;;
2021/05/24 12:26:42;;;;;;;0;0;;;;;;;18.68;45.14648;932.3136;;;;
2021/05/24 12:29:08;;;;;;;0.1;0.1;;;;;;;18.58;44.76367;932.2576;;;;
2021/05/24 12:31:34;;;;;;;0.6;0.4;;;;;;;18.56;46.07617;932.3122;;;;
2021/05/24 12:33:59;;;;;;;0.5;0.2;;;;;;;18.59;44.75293;932.1901;;;;
2021/05/24 12:36:32;;;;;;;0.6;0.3;;;;;;;18.79;45.75;932.053;;;;
2021/05/24 12:38:49;;;;;;;0.4;0.2;;;;;;;18.88;45.49316;932.0795;;;;
2021/05/24 12:41:15;;;;;;;0.2;0.2;;;;;;;19.25;46.33398;932.0129;;;;
2021/05/24 12:43:39;;;;;;;0.2;0.2;;;;;;;19.34;44.80664;932.0614;;;;
2021/05/24 12:46:05;;;;;;;0.3;0.2;;;;;;;19.41;44.1377;932.0236;;;;
2021/05/24 12:48:30;;;;;;;0.2;0.2;;;;;;;19.26;42.81836;932.0164;;;;
2021/05/24 12:50:56;;;;;;;0.2;0.2;;;;;;;19.54;44.76758;932.0269;;;;
2021/05/24 12:53:22;;;;;;;0.2;0.2;;;;;;;19.73;43.22461;932.0931;;;;
2021/05/24 12:55:49;;;;;;;0.4;0.4;;;;;;;19.82;43.65332;932.1272;;;;
2021/05/24 12:58:15;;;;;;;2;0.2;;;;;;;19.72;42.10547;932.1539;;;;
2021/05/24 13:00:39;;;;;;;0.4;0.1;;;;;;;19.58;42.52148;932.2048;;;;
2021/05/24 13:03:04;;;;;;;1.2;0.7;;;;;;;19.81;45.06348;932.2268;;;;
2021/05/24 13:05:30;;;;;;;0.1;0.1;;;;;;;19.86;41.38281;932.1234;;;;
2021/05/24 13:07:55;;;;;;;0.2;0.2;;;;;;;19.94;43.03516;932.2159;;;;
2021/05/24 13:10:21;;;;;;;0.3;0.3;;;;;;;20.18;41.23828;932.23;;;;
2021/05/24 13:12:47;;;;;;;1.3;0.3;;;;;;;20.15;42.49512;932.2563;;;;
2021/05/24 13:15:12;;;;;;;0;0;;;;;;;20.27;42.23828;932.21;;;;
2021/05/24 13:17:45;;;;;;;0.2;0.2;;;;;;;20.17;41.31836;932.1641;;;;
2021/05/24 13:21:12;;;;;;;0.1;0.1;;;;;;;20.46;41.60254;932.1;;;;
2021/05/24 13:22:56;;;;;;;0.1;0.1;;;;;;;20.63;41.34961;932.1116;;;;
2021/05/24 13:25:23;;;;;;;0.3;0.2;;;;;;;20.73;41.62793;932.1163;;;;
2021/05/24 13:27:41;;;;;;;0.1;0.1;;;;;;;20.75;42.1084;932.1083;;;;
2021/05/24 13:29:51;;;;;;;0.1;0.1;;;;;;;20.69;39.90625;932.0825;;;;
2021/05/24 13:32:11;;;;;;;0.4;0.2;;;;;;;20.95;41.28711;931.9444;;;;
2021/05/24 13:34:43;;;;;;;0.1;0.1;;;;;;;21.1;40.45898;931.9498;;;;
2021/05/24 13:37:05;;;;;;;0.1;0.1;;;;;;;21.19;41.67188;931.8683;;;;
2021/05/24 13:39:30;;;;;;;0.2;0.1;;;;;;;21.21;41.67285;931.8119;;;;
2021/05/24 13:42:00;;;;;;;0.1;0.1;;;;;;;21.07;42.63184;931.8433;;;;
2021/05/24 13:44:23;;;;;;;0.2;0.2;;;;;;;21.34;41.33398;931.7657;;;;
2021/05/24 13:46:50;;;;;;;0.1;0.1;;;;;;;21.68;40.78125;931.6769;;;;
2021/05/24 13:49:15;;;;;;;0.2;0.2;;;;;;;21.88;39.87402;931.6278;;;;
2021/05/24 13:51:40;;;;;;;0.1;0.1;;;;;;;21.7;41.79004;931.6986;;;;
2021/05/24 13:54:05;;;;;;;0.2;0.1;;;;;;;21.72;40.8418;931.7197;;;;
2021/05/24 13:56:31;;;;;;;0.1;0.1;;;;;;;21.48;42.30762;931.7111;;;;
2021/05/24 13:58:56;;;;;;;0.1;0.1;;;;;;;21.53;40.5918;931.7866;;;;
2021/05/24 14:01:23;;;;;;;0.1;0.1;;;;;;;21.44;41.57715;931.7358;;;;
2021/05/24 14:03:48;;;;;;;0;0;;;;;;;21.39;42.38086;931.7983;;;;
2021/05/24 14:06:15;;;;;;;0.5;0.1;;;;;;;21.43;41.94043;931.8072;;;;
2021/05/24 14:11:48;;;;;;;0.1;0.1;;;;;;;21.1;42.06152;931.7328;;;;
2021/05/24 14:14:13;;;;;;;0.2;0.1;;;;;;;21.07;41.54395;931.6992;;;;
2021/05/24 14:16:38;;;;;;;0.2;0.2;;;;;;;20.56;43.07324;931.601;;;;
2021/05/24 14:19:04;;;;;;;2;0.4;;;;;;;20.4;43.44238;931.6017;;;;
2021/05/24 14:21:29;;;;;;;0.2;0.1;;;;;;;20.11;43.62402;931.5917;;;;
2021/05/24 14:23:55;;;;;;;0.1;0.1;;;;;;;20;44.18457;931.6312;;;;
2021/05/24 14:26:20;;;;;;;0;0;;;;;;;19.65;44.98828;931.7263;;;;
2021/05/24 14:28:46;;;;;;;0.3;0.2;;;;;;;19.42;46.07227;931.6866;;;;
2021/05/24 14:31:11;;;;;;;0.3;0.2;;;;;;;19.52;45.75781;931.7558;;;;
2021/05/24 14:33:36;;;;;;;0;0;;;;;;;19.52;45.72266;931.7978;;;;
2021/05/24 14:36:02;;;;;;;0.5;0.5;;;;;;;19.13;47.42773;931.8698;;;;
2021/05/24 14:38:27;;;;;;;0.2;0.2;;;;;;;18.84;49.68945;931.9429;;;;
2021/05/24 14:41:55;;;;;;;0.4;0.2;;;;;;;18.75;49.0498;931.9778;;;;
2021/05/24 14:44:20;;;;;;;0.4;0.3;;;;;;;18.28;50.0791;932.068;;;;
2021/05/24 14:46:45;;;;;;;0;0;;;;;;;18.04;51.94629;932.1689;;;;
2021/05/24 14:49:11;;;;;;;0.8;0.6;;;;;;;17.75;52.53809;932.2453;;;;
2021/05/24 14:51:39;;;;;;;0.4;0.3;;;;;;;17.92;52.38379;932.3495;;;;
2021/05/24 14:54:01;;;;;;;0.9;0.4;;;;;;;17.89;51.96289;932.3092;;;;
2021/05/24 14:56:26;;;;;;;0.1;0.1;;;;;;;17.93;52.44336;932.3934;;;;
2021/05/24 14:58:51;;;;;;;0.2;0.2;;;;;;;17.86;51.9707;932.4462;;;;
2021/05/24 15:01:16;;;;;;;3.6;0.4;;;;;;;17.79;51.84668;932.4847;;;;
2021/05/24 15:03:41;;;;;;;0.3;0.3;;;;;;;17.74;53.81348;932.5377;;;;
2021/05/24 15:06:07;;;;;;;1.8;0.5;;;;;;;17.69;53.83105;932.5295;;;;
2021/05/24 15:08:32;;;;;;;0.4;0.2;;;;;;;17.63;55.51758;932.6097;;;;
2021/05/24 15:11:00;;;;;;;0.4;0.4;;;;;;;17.46;57.25977;932.6317;;;;
2021/05/24 15:13:25;;;;;;;0.7;0.4;;;;;;;17.46;58.73242;932.6411;;;;
2021/05/24 15:15:51;;;;;;;0.2;0.2;;;;;;;17.45;58.37305;932.6543;;;;
2021/05/24 15:18:20;;;;;;;0.1;0.1;;;;;;;17.57;57.73926;932.6746;;;;
2021/05/24 15:20:44;;;;;;;0.3;0.2;;;;;;;17.52;56.24707;932.7073;;;;
2021/05/24 15:23:09;;;;;;;1.2;0.3;;;;;;;17.5;57.25293;932.8488;;;;